Aromas, California
Current Conditions -  °F | °C
As of 1:53 AM on Friday 31 Oct 2014 (Local Time) from KWVI Reporting Station
Overcast Overcast  
Wind Chill: 17°   Ceiling: 1300
Heat Index: 17°   Visibility: 10mi
Dew Point: 14°   Wind: 3mph
Humidity: 84%   Direction: 230°SW
Pressure: 29.93"   Gusts: NA
Location:  36.88°N, 121.64°W
Report Text: KWVI 310853Z AUTO 23003KT 10SM OVC013 17/14 A2993 RMK AO2 SLP135 T01670139 56002
Loading
Personal Weather Stations






























Interactive Weather Map New forecast layout! Learn more

10-Day Weather Forecast

Advertisements
Track Severe Weather on mobile